Tiempo atmosférico en la estación meteorológica de Cádiz, Cadiz (1 m.)

Fecha
DESCASC
Temp. máxima en grados centígrados (hora)
DESCASC
Temp. mínima en grados centígrados (hora)
DESCASC
Temp. media en grados centígrados
DESCASC
Racha de viento máxima en m/sg (hora)
DESCASC
Velocidad máxima media en intervalos de 10 minutos(hora)
DESCASC
Precipitaciones diarias en mm
DESCASC
Precipitaciones de 00:00 a 06:00 en mm
DESCASC
Precipitaciones de 06:00 a 12:00 en mm
DESCASC
Precipitaciones de 12:00 a 18:00 en mm
DESCASC
Precipitaciones de 18:00 a 24:00 en mm
DESCASC
17-09-2017 24.2 (16:00) 18.4 (08:10) 21.3 6.11 (14:00) 4.17 (06:10) 0 0 0 0 0
16-09-2017 23 (00:10) 18.2 (06:40) 20.6 10 (01:20) 6.11 (01:20) 0 0 0 0 0
15-09-2017 23.8 (17:30) 19.1 (10:00) 21.4 10.28 (14:30) 6.94 (14:20) 0 0 0 0 0
14-09-2017 26.1 (15:50) 21.4 (00:00) 23.8 6.94 (22:00) 5.28 (19:30) 0 0 0 0 0
13-09-2017 31.4 (16:50) 23.4 (00:00) 27.4 13.33 (09:50) 9.44 (11:20) 0 0 0 0 0
12-09-2017 31.8 (14:30) 21.1 (00:00) 26.4 10 (17:40) 6.94 (10:40) 0 0 0 0 0
11-09-2017 29.1 (15:30) 18.8 (00:00) 23.9 7.22 (16:10) 5 (16:10) 0 0 0 0 0
10-09-2017 24.3 (19:40) 18.9 (00:00) 21.6 13.33 (01:10) 8.89 (01:10) 0 0 0 0 0
09-09-2017 25.4 (02:50) 20.3 (00:00) 22.8 13.61 (23:20) 7.78 (23:30) 0 0 0 0 0
08-09-2017 29.5 (12:20) 23.2 (00:00) 26.4 7.22 (16:30) 5.28 (04:20) 0 0 0 0 0
07-09-2017 31.2 (13:10) 24.1 (00:00) 27.7 8.33 (11:20) 6.11 (11:20) 0 0 0 0 0
06-09-2017 31.1 (14:10) 23.1 (00:00) 27.1 6.11 (19:00) 4.44 (10:40) 0 0 0 0 0
05-09-2017 27 (15:40) 22.1 (00:00) 24.6 7.78 (07:30) 6.11 (07:30) 0 0 0 0 0
04-09-2017 27.8 (16:50) 21.9 (00:00) 24.8 8.61 (18:50) 5.56 (18:30) 0 0 0 0 0
03-09-2017 29.5 (12:30) 23.3 (00:00) 26.4 13.61 (00:30) 10.28 (00:30) 0 0 0 0 0
02-09-2017 30.9 (14:20) 23.9 (00:00) 27.4 16.67 (18:50) 12.78 (18:50) 0 0 0 0 0
01-09-2017 31.4 (15:10) 24 (00:00) 27.7 12.5 (22:40) 9.72 (06:10) 0 0 0 0 0
31-08-2017 29.8 (14:10) 21.1 (00:00) 25.4 6.39 (18:40) 5 (15:20) 0 0 0 0 0
30-08-2017 26.4 (20:10) 20.9 (00:00) 23.6 8.33 (17:20) 5.56 (17:00) 0 0 0 0 0
29-08-2017 25.3 (17:10) 19.2 (00:00) 22.3 6.67 (05:00) 4.72 (10:00) 12.9 12.7 0.2 0 0
28-08-2017 26.2 (17:10) 21.5 (00:00) 23.9 7.78 (18:50) 5.28 (18:20) 0 0 0 0 0
27-08-2017 27.9 (00:10) 22.4 (00:00) 25.1 15.28 (03:30) 11.67 (03:10) 5.6 0 4.3 1.3 0
26-08-2017 33.6 (14:50) 24.6 (00:00) 29.1 10 (13:20) 8.33 (13:30) 0 0 0 0 0
25-08-2017 30.2 (14:20) 23.8 (00:00) 27 8.06 (03:10) 6.11 (03:10) 0 0 0 0 0
24-08-2017 28.9 (11:40) 23.1 (00:00) 26 6.67 (14:30) 4.44 (14:00) 0 0 0 0 0
23-08-2017 32.4 (13:30) 23 (00:00) 27.7 7.22 (15:00) 5.28 (15:10) 0 0 0 0 0
22-08-2017 30.7 (13:00) 22.9 (00:00) 26.8 14.17 (00:50) 11.11 (00:50) 0 0 0 0 0

Gráficas

Temp. máximas Temp. mínimas Temp. medias Precipitaciones Rachas de viento máximas Velocidades máximas media en intervalos de 10 minutos

Datos horarios

Fecha y hora oficial Temperatura (ºC) Velocidad del viento (km/h) Dirección del viento Racha (km/h) Dirección de racha Precipitación (mm) Presión (hPa) Tendencia (hPa) Humedad (%)
2017-09-20 23:00:00 22.7 10 Sudeste 16 Este 0 1016.2 0.3 66
2017-09-20 22:00:00 22.3 2 Noroeste 8 Noroeste 0 1016 -0.1 73
2017-09-20 21:00:00 22.6 6 Noroeste 9 Oeste 0 1015.8 -0.2 72
2017-09-20 20:00:00 23.3 7 Noroeste 14 Oeste 0 1015.9 -0.4 71
2017-09-20 19:00:00 23.1 9 Oeste 19 Oeste 0 1016.1 -0.6 72
2017-09-20 18:00:00 24.4 14 Oeste 23 Oeste 0 1016 -1.5 67
2017-09-20 17:00:00 25.5 14 Oeste 21 Oeste 0 1016.3 -1.7 59
2017-09-20 16:00:00 25.6 10 Sudoeste 17 Sudoeste 0 1016.7 -1.8 56
2017-09-20 15:00:00 25 10 Sudoeste 16 Sudoeste 0 1017.5 -1.1 58
2017-09-20 14:00:00 25.1 9 Sudoeste 18 Sudoeste 0 1018 -0.7 63
2017-09-20 13:00:00 24.1 15 Sudoeste 21 Sudoeste 0 1018.5 0.1 57
2017-09-20 12:00:00 24.7 6 Sudoeste 12 Sudeste 0 1018.6 0.4 54
2017-09-20 11:00:00 23.1 8 Sudeste 16 Sudeste 0 1018.7 0.5 59
2017-09-20 10:00:00 21.3 8 Sur 12 Sur 0 1018.4 0.3 67
2017-09-20 09:00:00 20.4 8 Sudeste 12 Sudeste 0 1018.2 -0.1 75
2017-09-20 08:00:00 20.4 7 Sudeste 11 Sudeste 0 1018.2 -0.4 84
2017-09-20 07:00:00 20.8 9 Sur 13 Sudeste 0 1018.1 -0.5 78
2017-09-20 06:00:00 20 3 Sur 11 Sur 0 1018.3 -0.5 76
2017-09-20 05:00:00 20.2 6 Sur 10 Sur 0 1018.6 -0.4 81
2017-09-20 04:00:00 20.3 4 Noroeste 10 Sudeste 0 1018.6 -0.9 82
2017-09-20 03:00:00 20.3 6 Este 9 Este 0 1018.8 -1.3 85
2017-09-20 02:00:00 20.6 7 Este 12 Este 0 1019 -0.9 85
2017-09-20 01:00:00 21 4 Nordeste 6 Nordeste 0 1019.5 -0.2 82
2017-09-20 00:00:00 21 0 Calma 4 Oeste 0 1020.1 0.6 79
2017-09-19 23:00:00 21.2 3 Sudoeste 8 Sudoeste 0 1019.9 0.7 77
2017-09-19 22:00:00 21.4 4 Sudoeste 12 Oeste 0 1019.7 0.5 75
2017-09-19 21:00:00 21.5 9 Oeste 13 Sudoeste 0 1019.5 0.4 72
2017-09-19 20:00:00 22 13 Oeste 24 Oeste 0 1019.2 -0.3 70
2017-09-19 19:00:00 23.1 16 Oeste 26 Oeste 0 1019.2 -0.7 67
2017-09-19 18:00:00 23.5 17 Oeste 27 Sudoeste 0 1019.1 -1.6 65
2017-09-19 17:00:00 23.4 17 Oeste 27 Oeste 0 1019.5 -1.7 66
2017-09-19 16:00:00 23.7 17 Oeste 24 Oeste 0 1019.9 -1.7 63
2017-09-19 15:00:00 23.3 16 Oeste 24 Oeste 0 1020.7 -1.2 65
2017-09-19 14:00:00 23.9 12 Oeste 19 Oeste 0 1021.2 -0.4 57
2017-09-19 13:00:00 23.6 9 Oeste 15 Oeste 0 1021.6 0.3 60
2017-09-19 12:00:00 22.5 5 Sudeste 8 Este 0 1021.9 1.2 63
2017-09-19 11:00:00 21.4 4 Este 8 Sudeste 0 1021.6 1.4 69
2017-09-19 10:00:00 20 3 Nordeste 10 Nordeste 0 1021.3 1.3 69
2017-09-19 09:00:00 19.2 6 Nordeste 15 Norte 0 1020.7 0.7 71
2017-09-19 08:00:00 20 15 Norte 19 Norte 0 1020.2 0.2 69
2017-09-19 07:00:00 20.2 9 Noroeste 12 Noroeste 0 1020 -0.2 71
2017-09-19 06:00:00 20.4 9 Norte 13 Norte 0 1020 -0.6 69
2017-09-19 05:00:00 20.7 11 Norte 14 Norte 0 1020 -0.9 69
2017-09-19 04:00:00 21.3 11 Noroeste 18 Norte 0 1020.2 -0.9 73
2017-09-19 03:00:00 21.6 14 Norte 23 Norte 0 1020.6 -0.5 73
2017-09-19 02:00:00 21.9 13 Noroeste 31 Noroeste 0 1020.9 -0.3 73
2017-09-19 01:00:00 22.4 17 Noroeste 30 Noroeste 0 1021.1 0.3 71
2017-09-19 00:00:00 22.8 20 Noroeste 31 Noroeste 0 1021.1 1 69
2017-09-18 23:00:00 22 9 Oeste 25 Oeste 0 1021.2 0.9 83
2017-09-18 22:00:00 21.9 17 Oeste 31 Oeste 0 1020.8 0.4 83
2017-09-18 21:00:00 21.8 19 Oeste 33 Oeste 0 1020.1 -0.4 79
2017-09-18 20:00:00 22.3 23 Oeste 37 Oeste 0 1020.3 -0.2 68
2017-09-18 19:00:00 22.9 22 Oeste 35 Oeste 0 1020.4 -0.5 64
2017-09-18 18:00:00 23.4 21 Oeste 34 Oeste 0 1020.5 -0.9 64
2017-09-18 17:00:00 23.7 18 Oeste 29 Oeste 0 1020.5 -1.3 62
2017-09-18 16:00:00 22.8 16 Oeste 27 Oeste 0 1020.9 -1 63
2017-09-18 15:00:00 21.1 17 Oeste 26 Oeste 0 1021.4 -0.6 65
2017-09-18 14:00:00 20.3 18 Oeste 29 Oeste 0 1021.8 0.4 67
2017-09-18 13:00:00 19.9 17 Noroeste 27 Oeste 0 1021.9 1.1 68
2017-09-18 12:00:00 19.4 16 Oeste 46 Noroeste 0 1022 1.7 69
2017-09-18 11:00:00 19.9 14 Oeste 24 Oeste 0 1021.4 1.8 67
2017-09-18 10:00:00 19.7 6 Noroeste 17 Noroeste 0 1020.8 1.6 67
2017-09-18 09:00:00 19.3 15 Noroeste 20 Noroeste 0 1020.3 1.4 68
2017-09-18 08:00:00 19.5 7 Noroeste 17 Noroeste 0 1019.6 0.9 67
2017-09-18 07:00:00 19.5 10 Noroeste 16 Noroeste 0 1019.2 0.5 66
2017-09-18 06:00:00 20 8 Noroeste 14 Noroeste 0 1018.9 0.2 63
2017-09-18 05:00:00 20.5 10 Noroeste 17 Noroeste 0 1018.7 -0.2 63
2017-09-18 04:00:00 20.7 10 Noroeste 19 Noroeste 0 1018.7 -0.3 62
2017-09-18 03:00:00 21.3 13 Noroeste 20 Noroeste 0 1018.7 -0.4 62
2017-09-18 02:00:00 21.2 9 Oeste 18 Noroeste 0 1018.9 -0.1 60
2017-09-18 01:00:00 21 10 Oeste 16 Oeste 0 1019 0.5 64
2017-09-18 00:00:00 21 12 Noroeste 18 Noroeste 0 1019.1 1.1 66
2017-09-17 23:00:00 21.2 10 Noroeste 17 Oeste 0 1019 1 64
2017-09-17 22:00:00 21.1 10 Oeste 17 Noroeste 0 1018.5 0.6 66
2017-09-17 21:00:00 21.2 11 Oeste 19 Oeste 0 1018 0 68
2017-09-17 20:00:00 21.8 11 Oeste 21 Oeste 0 1018 -0.1 61
2017-09-17 19:00:00 22.7 10 Oeste 19 Oeste 0 1017.9 -0.4 59
2017-09-17 18:00:00 23.6 12 Oeste 21 Oeste 0 1018 -0.8 58
2017-09-17 17:00:00 23.5 13 Sudoeste 22 Oeste 0 1018.1 -1 59
2017-09-17 16:00:00 23.9 14 Sudoeste 21 Sudoeste 0 1018.3 -1 59
2017-09-17 15:00:00 23.7 12 Sudoeste 20 Sudoeste 0 1018.8 -0.4 60
2017-09-17 14:00:00 22.9 12 Sudoeste 22 Sudoeste 0 1019.1 0.5 62
2017-09-17 13:00:00 22.8 13 Sur 22 Sur 0 1019.3 1.4 64
2017-09-17 12:00:00 22.4 13 Sur 20 Sudoeste 0 1019.2 1.8 66
2017-09-17 11:00:00 21.8 12 Sur 19 Sudoeste 0 1018.6 1.7 67
2017-09-17 10:00:00 20.6 11 Sudeste 16 Sudeste 0 1017.9 1.4 79
2017-09-17 09:00:00 19.1 10 Sudeste 17 Sudeste 0 1017.4 1 84
2017-09-17 08:00:00 18.6 10 Sudeste 17 Sudeste 0 1016.9 0.5 84
2017-09-17 07:00:00 18.7 13 Sudeste 18 Sudeste 0 1016.5 0 84
2017-09-17 06:00:00 19 13 Sudeste 17 Sudeste 0 1016.4 -0.1 84
2017-09-17 05:00:00 19.3 13 Sudeste 16 Sudeste 0 1016.4 -0.4 81
2017-09-17 04:00:00 20.2 10 Sudeste 15 Sudeste 0 1016.5 -0.3 72
2017-09-17 03:00:00 19.9 5 Sudoeste 9 Sudoeste 0 1016.5 -0.3 67
2017-09-17 02:00:00 19.9 5 Sudoeste 10 Sudoeste 0 1016.8 0.2 67
2017-09-17 01:00:00 20.1 5 Sudoeste 11 Oeste 0 1016.8 0.7 67
2017-09-17 00:00:00 20.1 7 Sudoeste 12 Sudoeste 0 1016.8 1.3 68
2017-09-16 23:00:00 20.1 8 Sudoeste 12 Oeste 0 1016.6 1.7 65
2017-09-16 22:00:00 20.1 5 Oeste 14 Oeste 0 1016.1 1.2 63
2017-09-16 21:00:00 20.2 9 Oeste 20 Oeste 0 1015.5 0.6 68
2017-09-16 20:00:00 21.1 14 Oeste 23 Oeste 0 1014.9 -0.2 62
2017-09-16 19:00:00 22.1 13 Sudoeste 23 Sudoeste 0 1014.9 -0.1 59
2017-09-16 18:00:00 22.1 16 Oeste 26 Oeste 0 1014.9 -0.7 60
2017-09-16 17:00:00 21.7 15 Sudoeste 24 Sudoeste 0 1015.1 -0.8 61
2017-09-16 16:00:00 22 15 Sudoeste 23 Sudoeste 0 1015 -1.1 61
2017-09-16 15:00:00 21.6 16 Sudoeste 24 Sudoeste 0 1015.6 -0.5 62
2017-09-16 14:00:00 21.3 13 Sudoeste 22 Sudoeste 0 1015.9 0.4 63
2017-09-16 13:00:00 20.6 12 Oeste 19 Oeste 0 1016.1 1.3 65
2017-09-16 12:00:00 19.9 12 Oeste 22 Oeste 0 1016.1 1.9 68
2017-09-16 11:00:00 20.1 12 Oeste 18 Oeste 0 1015.5 2.2 66
2017-09-16 10:00:00 19.2 10 Oeste 16 Oeste 0 1014.8 2.1 69
2017-09-16 09:00:00 19 9 Oeste 19 Noroeste 0 1014.2 1.5 69
2017-09-16 08:00:00 18.7 9 Oeste 14 Oeste 0 1013.3 0.7 68
2017-09-16 07:00:00 19.1 8 Oeste 12 Oeste 0 1012.7 0 66
2017-09-16 06:00:00 18.5 2 Este 5 Nordeste 0 1012.7 0 59
2017-09-16 05:00:00 19.1 3 Nordeste 12 Norte 0 1012.6 -0.4 58
2017-09-16 04:00:00 20 4 Nordeste 23 Norte 0 1012.7 -0.4 57
2017-09-16 03:00:00 21 19 Norte 30 Norte 0 1012.7 -0.5 60
2017-09-16 02:00:00 21.7 20 Noroeste 36 Noroeste 0 1013 0 56
2017-09-16 01:00:00 22.1 19 Noroeste 33 Noroeste 0 1013.1 0.2 54
2017-09-16 00:00:00 22.8 13 Oeste 21 Oeste 0 1013.2 0.6 62
2017-09-15 23:00:00 22.1 13 Oeste 26 Oeste 0 1013 0.2 70
2017-09-15 22:00:00 22.2 17 Oeste 25 Oeste 0 1012.9 -0.2 67
2017-09-15 21:00:00 21.8 13 Oeste 28 Oeste 0 1012.6 -0.6 63
2017-09-15 20:00:00 22.9 13 Oeste 29 Oeste 0 1012.8 -0.7 55
2017-09-15 19:00:00 23 16 Oeste 30 Oeste 0 1013.1 -1 54
2017-09-15 18:00:00 23.3 17 Oeste 30 Sudoeste 0 1013.2 -1.3 50
2017-09-15 17:00:00 23 20 Oeste 31 Oeste 0 1013.5 -1.6 48
2017-09-15 16:00:00 22.2 19 Oeste 35 Oeste 0 1014.1 -1.5 52
2017-09-15 15:00:00 20.9 24 Oeste 37 Oeste 0 1014.5 -1.2 56
2017-09-15 14:00:00 20.3 21 Oeste 36 Oeste 0 1015.1 -0.2 65
2017-09-15 13:00:00 20.1 18 Oeste 29 Oeste 0 1015.6 1.1 68
2017-09-15 12:00:00 19.8 18 Oeste 30 Noroeste 0 1015.7 1.4 70
2017-09-15 11:00:00 19.4 19 Noroeste 29 Oeste 0 1015.3 1.5 71
2017-09-15 10:00:00 19.5 17 Noroeste 33 Noroeste 0 1014.5 1.1 70
2017-09-15 09:00:00 20 17 Noroeste 29 Noroeste 0 1014.3 1.1 69
2017-09-15 08:00:00 20.3 19 Noroeste 31 Noroeste 0 1013.8 0.3 65
2017-09-15 07:00:00 21.5 13 Noroeste 21 Noroeste 0 1013.4 -0.4 60
2017-09-15 06:00:00 22.4 14 Noroeste 20 Noroeste 0 1013.2 -1.1 62
2017-09-15 05:00:00 22.9 14 Noroeste 23 Noroeste 0 1013.5 -1.3 67
2017-09-15 04:00:00 23.4 17 Noroeste 32 Noroeste 0 1013.8 -1.5 71
2017-09-15 03:00:00 23.4 14 Noroeste 23 Oeste 0 1014.3 -1.3 75
2017-09-15 02:00:00 23.1 10 Oeste 18 Sudoeste 0 1014.8 -1.4 83
2017-09-15 01:00:00 22.9 12 Sudoeste 22 Sudoeste 0 1015.3 -0.8 81
2017-09-15 00:00:00 23 13 Oeste 21 Sudoeste 0 1015.6 0.1 78
2017-09-14 23:00:00 23 13 Oeste 24 Sudoeste 0 1016.2 0.4 78
2017-09-14 22:00:00 22.8 14 Oeste 25 Oeste 0 1016.1 1.2 82
2017-09-14 21:00:00 23 12 Sudoeste 20 Sudoeste 0 1015.5 -0.5 74
2017-09-14 20:00:00 24.1 9 Oeste 23 Norte 0 1015.8 -1.7 67
2017-09-14 19:00:00 24.6 5 Noroeste 9 Oeste 0 1014.9 -3.1 68
2017-09-14 18:00:00 23.7 2 Oeste 18 Sudoeste 0 1016 -2.8 69
2017-09-14 17:00:00 24 13 Sudoeste 23 Oeste 0 1017.5 -1.8 71
2017-09-14 16:00:00 25.6 15 Sudoeste 22 Sudoeste 0 1018 -1.8 69
2017-09-14 15:00:00 25.6 11 Sudoeste 22 Sudoeste 0 1018.8 -1.1 71
2017-09-14 14:00:00 25.1 11 Sudoeste 20 Sudoeste 0 1019.3 -0.4 71
2017-09-14 13:00:00 25.1 9 Sudoeste 16 Sudoeste 0 1019.8 0.2 71
2017-09-14 12:00:00 25 10 Oeste 17 Sudoeste 0 1019.9 0.7 74
2017-09-14 11:00:00 24.6 5 Sur 12 Sur 0 1019.7 1 78
2017-09-14 10:00:00 22.7 7 Sudeste 10 Sudeste 0 1019.6 0.9 81
2017-09-14 09:00:00 22.1 3 Sudeste 10 Sudeste 0 1019.2 0.3 86
2017-09-14 08:00:00 21.7 7 Sudeste 13 Este 0 1018.7 -0.3 87
2017-09-14 07:00:00 21.5 9 Sudeste 12 Este 0 1018.7 -0.2 87
2017-09-14 06:00:00 21.5 9 Este 13 Este 0 1018.9 -0.5 84
2017-09-14 05:00:00 22 9 Este 12 Este 0 1019 -0.8 81
2017-09-14 04:00:00 23 3 Este 7 Este 0 1018.9 -0.8 78
2017-09-14 03:00:00 22.3 2 Sudoeste 6 Sudoeste 0 1019.4 -0.2 75
2017-09-14 02:00:00 22.9 2 Oeste 6 Sudoeste 0 1019.8 0.1 75
2017-09-14 01:00:00 23.7 2 Este 16 Sudeste 0 1019.7 0.5 73
2017-09-14 00:00:00 24.2 13 Sudeste 25 Sudeste 0 1019.6 1.2 72
2017-09-13 23:00:00 24.9 11 Este 18 Este 0 1019.7 1.3 68
2017-09-13 22:00:00 25.7 10 Este 28 Este 0 1019.2 1.1 63
2017-09-13 21:00:00 25.1 5 Nordeste 17 Oeste 0 1018.4 0.4 75
2017-09-13 20:00:00 26.1 12 Oeste 18 Oeste 0 1018.4 0.4 72
2017-09-13 19:00:00 27.3 11 Oeste 22 Oeste 0 1018.1 -0.5 68
2017-09-13 18:00:00 27.9 14 Oeste 23 Oeste 0 1018 -1.1 62
2017-09-13 17:00:00 30.7 13 Sudeste 27 Este 0 1018 -1.5 48
2017-09-13 16:00:00 31 21 Sudeste 31 Este 0 1018.6 -1.3 45
2017-09-13 15:00:00 30.2 24 Sudeste 36 Este 0 1019.1 -0.6 48
2017-09-13 14:00:00 30 26 Este 39 Este 0 1019.5 -0.1 51
2017-09-13 13:00:00 28.7 27 Este 43 Este 0 1019.9 1.1 56
2017-09-13 12:00:00 27.7 28 Este 48 Este 0 1019.7 1.5 59
2017-09-13 11:00:00 26.6 28 Este 43 Este 0 1019.6 2 65
2017-09-13 10:00:00 25.1 33 Este 48 Este 0 1018.8 1.5 69
2017-09-13 09:00:00 24 32 Este 45 Este 0 1018.2 1.3 75
2017-09-13 08:00:00 23.6 32 Este 45 Este 0 1017.6 0.7 76
2017-09-13 07:00:00 23.6 32 Este 44 Este 0 1017.3 0.2 75
2017-09-13 06:00:00 23.7 33 Este 48 Este 0 1016.9 -0.6 75
2017-09-13 05:00:00 23.8 28 Este 43 Este 0 1016.9 -0.5 72
2017-09-13 04:00:00 24.2 30 Este 43 Este 0 1017.1 0.1 62
2017-09-13 03:00:00 24.5 27 Este 37 Este 0 1017.5 0.9 55
2017-09-13 02:00:00 24.7 16 Este 22 Este 0 1017.4 1.4 54
2017-09-13 01:00:00 24.9 5 Este 13 Norte 0 1017 1.5 55
2017-09-13 00:00:00 25.9 14 Norte 32 Noroeste 0 1016.6 1.9 61
2017-09-12 23:00:00 27.6 19 Noroeste 34 Noroeste 0 1016 1.4 48
2017-09-12 22:00:00 27.7 22 Noroeste 35 Noroeste 0 1015.5 1.2 48
2017-09-12 21:00:00 30.1 20 Noroeste 31 Noroeste 0 1014.7 0.5 37
2017-09-12 20:00:00 30.3 21 Noroeste 31 Noroeste 0 1014.6 0.4 38
2017-09-12 19:00:00 30.1 23 Noroeste 32 Noroeste 0 1014.3 -0.3 40
2017-09-12 18:00:00 30.7 22 Noroeste 36 Noroeste 0 1014.2 -0.8 39
2017-09-12 17:00:00 29.9 19 Noroeste 29 Noroeste 0 1014.2 -1 44
2017-09-12 16:00:00 29 17 Noroeste 26 Oeste 0 1014.6 -0.8 49
2017-09-12 15:00:00 29.4 17 Oeste 23 Oeste 0 1015 -0.6 52
2017-09-12 14:00:00 30.8 11 Norte 19 Norte 0 1015.2 0.2 43
2017-09-12 13:00:00 28.7 15 Norte 21 Norte 0 1015.4 0.9 48
2017-09-12 12:00:00 27.9 18 Norte 24 Norte 0 1015.6 1.6 44
2017-09-12 11:00:00 25.8 21 Norte 33 Norte 0 1015 1.5 51
2017-09-12 10:00:00 24.1 24 Norte 30 Norte 0 1014.5 1.6 57
2017-09-12 09:00:00 23.5 21 Norte 24 Norte 0 1014 1.1 59
2017-09-12 08:00:00 22.1 13 Norte 18 Norte 0 1013.5 0.7 72
2017-09-12 07:00:00 21.3 4 Nordeste 6 Nordeste 0 1012.9 0 77
2017-09-12 06:00:00 22.7 4 Nordeste 24 Norte 0 1012.9 -0.2 76
2017-09-12 05:00:00 21.9 4 Nordeste 13 Norte 0 1012.8 -0.2 81
2017-09-12 04:00:00 22.1 3 Nordeste 5 Norte 0 1012.9 -0.2 77
2017-09-12 03:00:00 22 5 Nordeste 7 Nordeste 0 1013.1 -0.1 78
2017-09-12 02:00:00 23.7 3 Sudeste 7 Este 0 1013 -0.1 78
2017-09-12 01:00:00 23.4 4 Este 7 Este 0 1013.1 0.4 77
2017-09-12 00:00:00 24.1 0 Calma 6 Sur 0 1013.2 1.2 69
2017-09-11 23:00:00 24 3 Sudoeste 8 Sur 0 1013.1 1.2 67
2017-09-11 22:00:00 24.7 4 Oeste 10 Sur 0 1012.7 0.5 63
2017-09-11 21:00:00 25.1 4 Sudoeste 9 Sur 0 1012 -0.3 66
2017-09-11 20:00:00 27.5 5 Oeste 15 Oeste 0 1011.9 -0.6 50
2017-09-11 19:00:00 26.8 11 Noroeste 23 Oeste 0 1012.2 -0.9 57
2017-09-11 18:00:00 27.3 14 Oeste 24 Noroeste 0 1012.3 -1.4 53
2017-09-11 17:00:00 28.2 16 Noroeste 26 Oeste 0 1012.5 -1.9 38
2017-09-11 16:00:00 27 17 Oeste 24 Oeste 0 1013.1 -1.4 46
2017-09-11 15:00:00 28.8 12 Oeste 17 Oeste 0 1013.7 -1.1 37
2017-09-11 14:00:00 28.1 9 Oeste 16 Oeste 0 1014.4 0 43
2017-09-11 13:00:00 26.7 5 Noroeste 9 Noroeste 0 1014.5 0.4 44
2017-09-11 12:00:00 23.8 7 Noroeste 13 Norte 0 1014.8 0.9 57
2017-09-11 11:00:00 21.8 8 Norte 12 Norte 0 1014.4 0.9 63
2017-09-11 10:00:00 19.8 6 Norte 10 Nordeste 0 1014.1 1.3 69
2017-09-11 09:00:00 19.8 6 Nordeste 13 Norte 0 1013.9 0.9 69
2017-09-11 08:00:00 19.3 7 Noroeste 11 Noroeste 0 1013.5 0.1 77
2017-09-11 07:00:00 18.9 5 Nordeste 13 Nordeste 0 1012.8 -0.9 76
2017-09-11 06:00:00 19 5 Nordeste 9 Este 0 1013 -1.1 77
2017-09-11 05:00:00 19.3 6 Norte 9 Norte 0 1013.4 -1 78
2017-09-11 04:00:00 19.9 4 Nordeste 9 Este 0 1013.7 -1 76
2017-09-11 03:00:00 20.5 5 Este 12 Este 0 1014.1 -0.8 75
2017-09-11 02:00:00 21.4 7 Nordeste 17 Norte 0 1014.4 -0.5 72
2017-09-11 01:00:00 22.2 6 Noroeste 12 Oeste 0 1014.7 0.4 69
2017-09-11 00:00:00 21.9 6 Oeste 17 Oeste 0 1014.9 1 69
2017-09-10 23:00:00 22 12 Oeste 21 Oeste 0 1014.9 1.1 70
2017-09-10 22:00:00 22.2 12 Oeste 19 Oeste 0 1014.3 0.6 66
2017-09-10 21:00:00 22.4 14 Oeste 26 Oeste 0 1013.9 0.4 62
2017-09-10 20:00:00 23.5 16 Oeste 25 Oeste 0 1013.8 -0.2 50
2017-09-10 19:00:00 24 14 Oeste 26 Oeste 0 1013.7 -1.1 49
2017-09-10 18:00:00 23 20 Oeste 28 Oeste 0 1013.5 -1.9 53
2017-09-10 17:00:00 22.9 19 Oeste 29 Oeste 0 1014 -1.8 56
2017-09-10 16:00:00 23.1 17 Oeste 26 Oeste 0 1014.8 -0.9 54
2017-09-10 15:00:00 22.9 17 Oeste 26 Oeste 0 1015.4 -0.6 57
2017-09-10 14:00:00 22.7 13 Oeste 20 Oeste 0 1015.8 0.4 56
2017-09-10 13:00:00 22.9 7 Noroeste 12 Noroeste 0 1015.7 0.6 49
2017-09-10 12:00:00 21.8 5 Norte 17 Norte 0 1016 1.3 53
2017-09-10 11:00:00 20.1 12 Norte 52 Norte 0 1015.4 0.9 59
2017-09-10 10:00:00 19.6 15 Noroeste 22 Norte 0 1015.1 1.2 64
2017-09-10 09:00:00 19.1 16 Noroeste 41 Noroeste 0 1014.7 1.3 66
2017-09-10 08:00:00 19.2 17 Noroeste 25 Noroeste 0 1014.5 1 66
2017-09-10 07:00:00 19.6 18 Noroeste 30 Noroeste 0 1013.9 0.7 63
2017-09-10 06:00:00 20.1 22 Noroeste 32 Norte 0 1013.4 0.2 65
2017-09-10 05:00:00 20.3 20 Noroeste 34 Noroeste 0 1013.5 0.3 63
2017-09-10 04:00:00 20.7 21 Noroeste 47 Noroeste 0 1013.2 0.6 62
2017-09-10 03:00:00 21.2 30 Noroeste 42 Noroeste 0 1013.2 0.7 60
2017-09-10 02:00:00 21.9 28 Noroeste 48 Noroeste 0 1013.2 1.3 57
2017-09-10 01:00:00 22.7 31 Noroeste 46 Noroeste 0 1012.6 1.1 52
2017-09-10 00:00:00 23.8 26 Noroeste 49 Noroeste 0 1012.5 1.3 55
2017-09-09 23:00:00 24.4 25 Noroeste 38 Oeste 0 1011.9 0.6 57
2017-09-09 22:00:00 23.9 19 Oeste 38 Oeste 0 1011.5 0.1 72
2017-09-09 21:00:00 23.5 20 Oeste 36 Sudoeste 0 1011.2 -0.7 70
2017-09-09 20:00:00 23.3 24 Oeste 39 Oeste 0 1011.3 -0.8 68
2017-09-09 19:00:00 24.3 22 Oeste 35 Oeste 0 1011.4 -1.2 65
2017-09-09 18:00:00 24.1 20 Oeste 34 Sudoeste 0 1011.9 -1 65
2017-09-09 17:00:00 24.1 19 Oeste 36 Oeste 0 1012.1 -1.3 63
2017-09-09 16:00:00 23.5 22 Oeste 39 Oeste 0 1012.6 -1.1 66
2017-09-09 15:00:00 23.4 23 Oeste 38 Oeste 0 1012.9 -0.4 66
2017-09-09 14:00:00 22.6 20 Noroeste 32 Oeste 0 1013.4 -0.1 69
2017-09-09 13:00:00 22.6 19 Oeste 33 Oeste 0 1013.7 0.5 71
2017-09-09 12:00:00 21.2 19 Noroeste 37 Noroeste 0 1013.3 0.5 75
2017-09-09 11:00:00 20.7 25 Noroeste 36 Noroeste 0 1013.5 1.4 77
2017-09-09 10:00:00 20.7 21 Noroeste 34 Noroeste 0 1013.2 1.5 78
2017-09-09 09:00:00 20.5 19 Noroeste 32 Noroeste 0 1012.8 1.3 78
2017-09-09 08:00:00 20.8 17 Noroeste 30 Noroeste 0 1012.1 0.5 72
2017-09-09 07:00:00 21.8 14 Noroeste 23 Noroeste 0 1011.7 0.1 64
2017-09-09 06:00:00 22.6 14 Noroeste 27 Noroeste 0 1011.5 -0.3 61
2017-09-09 05:00:00 23.5 15 Noroeste 23 Noroeste 0 1011.6 -0.6 59
2017-09-09 04:00:00 24.4 14 Noroeste 21 Noroeste 0 1011.6 -0.8 55
2017-09-09 03:00:00 25.2 3 Nordeste 9 Norte 0 1011.8 -0.8 71
2017-09-09 02:00:00 25.1 6 Noroeste 12 Noroeste 0 1012.2 -0.4 67
2017-09-09 01:00:00 24 4 Oeste 13 Sudoeste 0 1012.4 0.3 77
2017-09-09 00:00:00 24.2 8 Sudoeste 20 Oeste 0 1012.6 0.8 81
2017-09-08 23:00:00 24.4 12 Oeste 18 Oeste 0 1012.6 1 81
2017-09-08 22:00:00 25 9 Oeste 18 Noroeste 0 1012.1 0.1 78
2017-09-08 21:00:00 25.4 10 Oeste 17 Oeste 0 1011.8 -0.2 74
2017-09-08 20:00:00 25.9 11 Oeste 19 Oeste 0 1011.6 -0.9 72
2017-09-08 19:00:00 27.3 10 Oeste 18 Oeste 0 1012 -0.8 67
2017-09-08 18:00:00 26.5 13 Oeste 25 Oeste 0 1012 -1.1 71
2017-09-08 17:00:00 27.9 17 Oeste 26 Oeste 0 1012.5 -1 65
2017-09-08 16:00:00 28 16 Oeste 24 Oeste 0 1012.8 -1 62
2017-09-08 15:00:00 28.2 16 Oeste 24 Oeste 0 1013.1 -1 61
2017-09-08 14:00:00 28.3 15 Oeste 19 Oeste 0 1013.5 -0.3 57
2017-09-08 13:00:00 28.1 10 Oeste 15 Oeste 0 1013.8 0.2 58
2017-09-08 12:00:00 28.8 0 Calma 7 Este 0 1014.1 0.8 53
2017-09-08 11:00:00 26.5 2 Nordeste 8 Nordeste 0 1013.8 1 61
2017-09-08 10:00:00 24.9 0 Calma 5 Oeste 0 1013.6 1.1 65
2017-09-08 09:00:00 23.5 0 Calma 9 Sudeste 0 1013.3 0.6 68
2017-09-08 08:00:00 23.4 7 Sudeste 10 Sudeste 0 1012.8 -0.2 69
2017-09-08 07:00:00 23.6 7 Sudeste 13 Este 0 1012.5 -0.8 71
2017-09-08 06:00:00 23.6 9 Este 21 Este 0 1012.7 -1 71
2017-09-08 05:00:00 23.9 15 Este 24 Este 0 1013 -1.2 72
2017-09-08 04:00:00 24.3 13 Este 18 Este 0 1013.3 -1 70
2017-09-08 03:00:00 24.4 6 Este 19 Este 0 1013.7 -0.8 68
2017-09-08 02:00:00 24.6 14 Este 20 Este 0 1014.2 -0.2 66
2017-09-08 01:00:00 24.9 8 Norte 13 Norte 0 1014.3 0.2 86
2017-09-08 00:00:00 25.2 12 Noroeste 14 Noroeste 0 1014.5 1.2 85
2017-09-07 23:00:00 25.3 9 Norte 12 Noroeste 0 1014.4 1.1 82
2017-09-07 22:00:00 25.4 7 Noroeste 9 Noroeste 0 1014.1 0.7 78
2017-09-07 21:00:00 25.6 5 Oeste 13 Oeste 0 1013.3 -0.2 75
2017-09-07 20:00:00 26.7 9 Oeste 18 Noroeste 0 1013.3 -0.5 71
2017-09-07 19:00:00 26.9 12 Oeste 19 Oeste 0 1013.4 -0.8 71
2017-09-07 18:00:00 26.7 15 Oeste 21 Oeste 0 1013.5 -1.2 71
2017-09-07 17:00:00 27.4 13 Oeste 22 Oeste 0 1013.8 -1.3 68
2017-09-07 16:00:00 28.1 14 Oeste 22 Oeste 0 1014.2 -1.1 66
2017-09-07 15:00:00 27.6 15 Sudoeste 23 Oeste 0 1014.7 -0.8 64
2017-09-07 14:00:00 29 14 Sudoeste 21 Oeste 0 1015.1 -0.2 56
2017-09-07 13:00:00 30.8 14 Este 27 Este 0 1015.3 0.3 46
2017-09-07 12:00:00 29.7 19 Este 30 Este 0 1015.5 0.9 50
2017-09-07 11:00:00 28.2 17 Este 28 Este 0 1015.3 0.9 53
2017-09-07 10:00:00 26.9 12 Este 22 Este 0 1015 0.8 52
2017-09-07 09:00:00 25.6 14 Sudeste 23 Sudeste 0 1014.6 0.3 53
2017-09-07 08:00:00 25.5 14 Sudeste 21 Sudeste 0 1014.4 -0.1 51
2017-09-07 07:00:00 24.3 2 Sudoeste 10 Sudeste 0 1014.2 -0.7 55
2017-09-07 06:00:00 24.6 4 Sudeste 9 Sur 0 1014.3 -1.2 55
2017-09-07 05:00:00 25.5 6 Sudeste 15 Sudeste 0 1014.5 -1.7 53
2017-09-07 04:00:00 25.4 6 Sur 18 Sudeste 0 1014.9 -1.6 54
2017-09-07 03:00:00 25.8 12 Sudeste 17 Sudeste 0 1015.5 -1.2 50
2017-09-07 02:00:00 24.9 4 Sur 10 Sur 0 1016.2 -0.5 63
2017-09-07 01:00:00 25.2 4 Oeste 10 Oeste 0 1016.5 0.5 77
2017-09-07 00:00:00 25.3 7 Oeste 10 Oeste 0 1016.7 1 76
2017-09-06 23:00:00 24.6 0 Calma 14 Oeste 0 1016.7 1.1 72
2017-09-06 22:00:00 25.2 7 Sudoeste 16 Sudoeste 0 1016 0.5 83
2017-09-06 21:00:00 25.6 10 Oeste 19 Sudoeste 0 1015.7 0.1 79
2017-09-06 20:00:00 27 12 Sudoeste 22 Sudoeste 0 1015.6 -0.4 74
2017-09-06 19:00:00 27.2 15 Sudoeste 22 Sudoeste 0 1015.5 -1.1 71
2017-09-06 18:00:00 28.9 13 Sudoeste 19 Oeste 0 1015.6 -1.7 65
2017-09-06 17:00:00 29 12 Oeste 18 Oeste 0 1016 -1.8 58
2017-09-06 16:00:00 29.4 13 Oeste 18 Oeste 0 1016.6 -1.7 59
2017-09-06 15:00:00 28.5 12 Oeste 19 Sudoeste 0 1017.3 -1.4 59
2017-09-06 14:00:00 30.6 8 Oeste 15 Oeste 0 1017.8 -0.7 49
2017-09-06 13:00:00 29.1 9 Noroeste 13 Noroeste 0 1018.3 -0.2 54
2017-09-06 12:00:00 29 5 Norte 10 Este 0 1018.7 0.2 54
2017-09-06 11:00:00 28.3 6 Este 21 Este 0 1018.5 0.3 57
2017-09-06 10:00:00 25.9 9 Este 17 Este 0 1018.5 0.4 66
2017-09-06 09:00:00 23.2 5 Nordeste 13 Este 0 1018.5 0.1 75
2017-09-06 08:00:00 23.2 7 Norte 12 Norte 0 1018.2 -0.2 79
2017-09-06 07:00:00 23.9 7 Nordeste 13 Nordeste 0 1018.1 -0.7 72
2017-09-06 06:00:00 23.7 6 Nordeste 13 Norte 0 1018.4 -0.7 77
2017-09-06 05:00:00 23.9 6 Nordeste 21 Nordeste 0 1018.4 -1.2 78
2017-09-06 04:00:00 24.3 7 Nordeste 16 Este 0 1018.8 -1.1 77
2017-09-06 03:00:00 24.9 12 Este 19 Este 0 1019.1 -0.7 75
2017-09-06 02:00:00 24.8 8 Nordeste 16 Nordeste 0 1019.6 0 72
2017-09-06 01:00:00 25 5 Nordeste 12 Sudeste 0 1019.9 0.5 69
2017-09-06 00:00:00 25.4 8 Sudeste 26 Sudeste 0 1019.8 1 69
2017-09-05 23:00:00 25.4 6 Sur 13 Sudeste 0 1019.6 0.8 75
2017-09-05 22:00:00 25.2 4 Noroeste 13 Noroeste 0 1019.4 0.7 76
2017-09-05 21:00:00 25.1 8 Noroeste 21 Noroeste 0 1018.8 0.2 76
2017-09-05 20:00:00 25.5 14 Noroeste 19 Norte 0 1018.8 0 75
2017-09-05 19:00:00 25.7 14 Noroeste 26 Noroeste 0 1018.7 -0.4 74
2017-09-05 18:00:00 25.8 15 Noroeste 24 Noroeste 0 1018.6 -0.8 74
2017-09-05 17:00:00 26 15 Oeste 25 Oeste 0 1018.8 -1.1 71
2017-09-05 16:00:00 25.8 14 Oeste 22 Sudoeste 0 1019.1 -1.2 71
2017-09-05 15:00:00 26.5 12 Sudoeste 23 Sudoeste 0 1019.4 -0.7 68
2017-09-05 14:00:00 26.4 9 Sudoeste 21 Sudoeste 0 1019.9 0.4 68
2017-09-05 13:00:00 25.7 13 Sudoeste 23 Sudoeste 0 1020.3 1.3 71
2017-09-05 12:00:00 24.7 15 Sudoeste 26 Sur 0 1020.1 1.7 78
2017-09-05 11:00:00 24.7 17 Sur 28 Sur 0 1019.5 1.4 81
2017-09-05 10:00:00 23.9 16 Sur 24 Sur 0 1019 1.2 85
2017-09-05 09:00:00 22.9 10 Sur 18 Sudeste 0 1018.4 1.2 90
2017-09-05 08:00:00 22.4 15 Sudeste 28 Sudeste 0 1018.1 0.8 91
2017-09-05 07:00:00 23.7 14 Este 19 Sudeste 0 1017.8 0.7 81
2017-09-05 06:00:00 23.7 7 Noroeste 12 Noroeste 0 1017.2 0 73
2017-09-05 05:00:00 23.7 3 Noroeste 10 Norte 0 1017.3 0 72
2017-09-05 04:00:00 24.3 9 Noroeste 16 Noroeste 0 1017.1 -0.3 72
2017-09-05 03:00:00 24.6 15 Norte 20 Noroeste 0 1017.2 -0.3 73
2017-09-05 02:00:00 24.9 12 Noroeste 23 Norte 0 1017.3 0.1 73
2017-09-05 01:00:00 24.3 14 Oeste 24 Oeste 0 1017.4 0.9 79
2017-09-05 00:00:00 24.2 15 Oeste 25 Oeste 0 1017.5 1.5 78
2017-09-04 23:00:00 24.2 17 Oeste 27 Oeste 0 1017.2 1.4 79
2017-09-04 22:00:00 24.4 16 Oeste 30 Oeste 0 1016.5 0.5 78
2017-09-04 21:00:00 24.5 18 Oeste 31 Oeste 0 1016 0.2 76
2017-09-04 20:00:00 26.1 18 Oeste 31 Oeste 0 1015.8 -0.2 67
2017-09-04 19:00:00 26.6 18 Oeste 31 Oeste 0 1016 -0.4 64
2017-09-04 18:00:00 27.4 16 Oeste 24 Oeste 0 1015.8 -0.8 62
2017-09-04 17:00:00 27.2 14 Oeste 23 Oeste 0 1016 -0.7 62
2017-09-04 16:00:00 26.9 16 Oeste 25 Oeste 0 1016.4 -0.6 59
2017-09-04 15:00:00 26 14 Sudoeste 22 Sudoeste 0 1016.6 -0.2 58
2017-09-04 14:00:00 25.5 13 Sudoeste 20 Sudoeste 0 1016.7 0.4 59
2017-09-04 13:00:00 25.9 10 Sudoeste 17 Oeste 0 1017 1.4 58
2017-09-04 12:00:00 25 9 Oeste 13 Oeste 0 1016.8 1.5 60
2017-09-04 11:00:00 24.4 8 Noroeste 18 Noroeste 0 1016.3 1.8 65
2017-09-04 10:00:00 23.8 13 Noroeste 19 Oeste 0 1015.6 1.4 67
2017-09-04 09:00:00 23.6 0 Calma 4 Oeste 0 1015.3 1.2 68
2017-09-04 08:00:00 21.9 0 Calma 5 Este 0 1014.5 0.4 71
2017-09-04 07:00:00 24.2 3 Nordeste 12 Norte 0 1014.2 0 70
2017-09-04 06:00:00 24.1 6 Noroeste 13 Norte 0 1014.1 -0.2 60
2017-09-04 05:00:00 24.1 8 Noroeste 12 Noroeste 0 1014.1 -0.4 63
2017-09-04 04:00:00 23.5 3 Sudoeste 8 Sudoeste 0 1014.2 -0.5 83
2017-09-04 03:00:00 23.8 3 Sudoeste 7 Sur 0 1014.3 -0.7 81
2017-09-04 02:00:00 24.3 5 Sudoeste 10 Oeste 0 1014.5 -0.2 75
2017-09-04 01:00:00 24.8 6 Oeste 11 Noroeste 0 1014.7 0.4 68
2017-09-04 00:00:00 24.8 7 Noroeste 16 Noroeste 0 1015 1.1 72
2017-09-03 23:00:00 24.4 9 Oeste 18 Oeste 0 1014.7 0.9 84
2017-09-03 22:00:00 24.8 12 Noroeste 20 Noroeste 0 1014.3 0.3 85
2017-09-03 21:00:00 25.1 12 Oeste 19 Oeste 0 1013.9 -0.1 81
2017-09-03 20:00:00 26.2 8 Oeste 20 Oeste 0 1013.8 -0.4 72
2017-09-03 19:00:00 27.6 12 Oeste 23 Oeste 0 1014 -0.9 68
2017-09-03 18:00:00 27 16 Oeste 23 Oeste 0 1014 -1.5 65
2017-09-03 17:00:00 27.2 15 Oeste 26 Sudoeste 0 1014.2 -1.5 65
2017-09-03 16:00:00 27.7 18 Oeste 28 Oeste 0 1014.9 -1.2 63
2017-09-03 15:00:00 27.5 19 Oeste 28 Oeste 0 1015.5 -0.6 65
2017-09-03 14:00:00 27.3 13 Sudoeste 20 Sudoeste 0 1015.7 -0.5 63
2017-09-03 13:00:00 28.2 9 Sudoeste 23 Este 0 1016.1 0.2 59
2017-09-03 12:00:00 28.9 19 Este 28 Este 0 1016.1 0.1 59
2017-09-03 11:00:00 27.7 23 Este 30 Este 0 1016.2 0.3 63
2017-09-03 10:00:00 26.5 10 Este 23 Este 0 1015.9 0.2 66
2017-09-03 09:00:00 24.3 10 Nordeste 17 Nordeste 0 1016 0.3 68
2017-09-03 08:00:00 23.4 10 Nordeste 19 Nordeste 0 1015.9 0.2 70
2017-09-03 07:00:00 24 12 Nordeste 23 Nordeste 0 1015.7 -0.4 70
2017-09-03 06:00:00 24.2 13 Nordeste 21 Nordeste 0 1015.7 -0.7 72
2017-09-03 05:00:00 24.5 10 Este 25 Este 0 1015.7 -0.7 69
2017-09-03 04:00:00 24.7 11 Este 29 Este 0 1016.1 -0.4 68
2017-09-03 03:00:00 25 15 Este 41 Este 0 1016.4 -0.1 68
2017-09-03 02:00:00 25 33 Este 46 Este 0 1016.4 0 70
2017-09-03 01:00:00 25.2 34 Sudeste 49 Sudeste 0 1016.5 0.5 69
2017-09-03 00:00:00 25.3 35 Sudeste 48 Este 0 1016.5 0.8 69
2017-09-02 23:00:00 25.6 36 Sudeste 51 Sudeste 0 1016.4 0.9 68
2017-09-02 22:00:00 26.3 35 Sudeste 49 Sudeste 0 1016 0.5 66
2017-09-02 21:00:00 27.1 38 Este 53 Sudeste 0 1015.7 0.1 62
2017-09-02 20:00:00 28.2 38 Sudeste 53 Sudeste 0 1015.5 -0.3 56
2017-09-02 19:00:00 29 44 Sudeste 60 Sudeste 0 1015.5 -0.7 54
2017-09-02 18:00:00 29.5 41 Sudeste 59 Este 0 1015.6 -1.1 51
2017-09-02 17:00:00 29.8 42 Este 53 Este 0 1015.8 -1.2 50
2017-09-02 16:00:00 30.1 32 Este 45 Este 0 1016.2 -1 53
2017-09-02 15:00:00 30.2 32 Sudeste 50 Sudeste 0 1016.7 -0.6 51
2017-09-02 14:00:00 30.2 33 Este 45 Este 0 1017 0 52
2017-09-02 13:00:00 29.5 35 Este 46 Este 0 1017.2 0.5 56
2017-09-02 12:00:00 28.9 30 Este 44 Sudeste 0 1017.3 1.1 62
2017-09-02 11:00:00 27.8 29 Sudeste 41 Este 0 1017 1 66
2017-09-02 10:00:00 26.8 27 Este 39 Este 0 1016.7 1.4 72
2017-09-02 09:00:00 24.7 6 Este 16 Nordeste 0 1016.2 0.8 77
2017-09-02 08:00:00 24 11 Nordeste 16 Nordeste 0 1016 0.5 78
2017-09-02 07:00:00 24.1 8 Nordeste 15 Este 0 1015.3 -0.2 77
2017-09-02 06:00:00 24.1 10 Nordeste 19 Nordeste 0 1015.4 -0.2 76
2017-09-02 05:00:00 24.6 10 Nordeste 17 Nordeste 0 1015.5 -0.3 73
2017-09-02 04:00:00 25 10 Nordeste 23 Este 0 1015.5 -0.3 73
2017-09-02 03:00:00 25.5 9 Este 24 Este 0 1015.6 0.2 74
2017-09-02 02:00:00 25.6 17 Este 26 Este 0 1015.8 0.8 74
2017-09-02 01:00:00 25.8 18 Este 40 Este 0 1015.8 1.4 73
2017-09-02 00:00:00 25.7 29 Sudeste 95 Sudeste 0 1015.4 1.5 73
2017-09-01 23:00:00 26.1 28 Este 45 Sudeste 0 1015 1.5 70
2017-09-01 22:00:00 26.5 28 Sudeste 40 Sudeste 0 1014.4 1 66
2017-09-01 21:00:00 27.5 27 Sudeste 35 Sudeste 0 1013.9 0.8 62
2017-09-01 20:00:00 29 22 Este 31 Este 0 1013.5 0.1 59
2017-09-01 19:00:00 28.6 7 Oeste 20 Oeste 0 1013.4 -0.3 65
2017-09-01 18:00:00 27.6 16 Oeste 24 Oeste 0 1013.1 -1 69
2017-09-01 17:00:00 27.4 15 Oeste 29 Oeste 0 1013.4 -1.2 67
2017-09-01 16:00:00 28.2 16 Oeste 29 Oeste 0 1013.7 -1.5 65
2017-09-01 15:00:00 30.9 18 Sudeste 26 Sudeste 0 1014.1 -1.4 49
2017-09-01 14:00:00 30.3 18 Sudeste 30 Sudeste 0 1014.6 -0.8 51
2017-09-01 13:00:00 29.6 17 Sudeste 24 Este 0 1015.2 0.4 56
2017-09-01 12:00:00 29.3 12 Este 22 Este 0 1015.5 1.2 56
2017-09-01 11:00:00 27.7 7 Nordeste 12 Este 0 1015.4 1.6 61
2017-09-01 10:00:00 25 7 Nordeste 21 Sudeste 0 1014.8 1.4 69
2017-09-01 09:00:00 25 18 Sudeste 24 Sudeste 0 1014.3 1.3 73
2017-09-01 08:00:00 24.7 18 Sudeste 36 Sudeste 0 1013.8 0.3 73
2017-09-01 07:00:00 24.7 22 Sudeste 44 Sudeste 0 1013.4 -0.2 72
2017-09-01 06:00:00 25.1 34 Sudeste 44 Sudeste 0 1013 -1.2 73
2017-09-01 05:00:00 25.1 26 Este 35 Este 0 1013.5 -1 72
2017-09-01 04:00:00 25 19 Este 28 Este 0 1013.6 -1.1 69
2017-09-01 03:00:00 25.1 8 Sudeste 18 Sudeste 0 1014.2 -0.5 67
2017-09-01 02:00:00 25.4 15 Sudeste 24 Sudeste 0 1014.5 0 66
2017-09-01 01:00:00 25.9 17 Sudeste 23 Sudeste 0 1014.7 0.7 63
2017-09-01 00:00:00 25 3 Oeste 10 Oeste 0 1014.7 1.4 69
2017-08-31 23:00:00 25.3 3 Oeste 9 Oeste 0 1014.5 1.5 65
2017-08-31 22:00:00 25.4 5 Sudoeste 9 Sudoeste 0 1014 1.2 68
2017-08-31 21:00:00 25.7 6 Sudoeste 14 Sudoeste 0 1013.3 0.6 68
2017-08-31 20:00:00 27.4 7 Oeste 19 Oeste 0 1013 0.4 62
2017-08-31 19:00:00 27.9 10 Sudoeste 23 Sudoeste 0 1012.8 -0.2 63
2017-08-31 18:00:00 28.1 10 Sudoeste 21 Oeste 0 1012.7 -1 65
2017-08-31 17:00:00 29.7 12 Oeste 22 Noroeste 0 1012.6 -1.6 56
2017-08-31 16:00:00 28.7 16 Noroeste 22 Noroeste 0 1013 -2 55
2017-08-31 15:00:00 27.5 15 Noroeste 21 Noroeste 0 1013.7 -1.6 57
2017-08-31 14:00:00 29.7 7 Noroeste 11 Noroeste 0 1014.2 -0.9 47
2017-08-31 13:00:00 28.2 7 Noroeste 12 Norte 0 1015 0 51
2017-08-31 12:00:00 26.4 9 Norte 13 Norte 0 1015.3 0.7 58
2017-08-31 11:00:00 25 9 Nordeste 14 Nordeste 0 1015.1 0.9 62
2017-08-31 10:00:00 23.3 5 Nordeste 9 Norte 0 1015 1.2 71
2017-08-31 09:00:00 21.8 5 Nordeste 10 Nordeste 0 1014.6 0.9 75
2017-08-31 08:00:00 21.4 6 Nordeste 9 Nordeste 0 1014.2 0.3 79
2017-08-31 07:00:00 21.3 4 Nordeste 8 Nordeste 0 1013.8 -0.2 78
2017-08-31 06:00:00 21.8 5 Nordeste 8 Nordeste 0 1013.7 -0.8 78
2017-08-31 05:00:00 22.4 6 Nordeste 10 Nordeste 0 1013.9 -0.9 76
2017-08-31 04:00:00 22.5 6 Nordeste 8 Nordeste 0 1014 -1.1 75
2017-08-31 03:00:00 23.1 5 Norte 10 Noroeste 0 1014.5 -0.8 77
2017-08-31 02:00:00 23.3 7 Noroeste 10 Noroeste 0 1014.8 -0.8 75
2017-08-31 01:00:00 22.8 0 Calma 6 Sur 0 1015.1 0.2 72
2017-08-31 00:00:00 23.3 6 Sudeste 20 Sudeste 0 1015.3 0.7 70
2017-08-30 23:00:00 23.6 18 Sudeste 24 Sudeste 0 1015.6 1.5 70
2017-08-30 22:00:00 24 8 Sur 13 Sur 0 1014.9 1 69
2017-08-30 21:00:00 24.3 8 Sur 17 Sur 0 1014.6 0.9 68
2017-08-30 20:00:00 26.2 10 Oeste 20 Oeste 0 1014.1 0.3 59
2017-08-30 19:00:00 25.7 13 Oeste 26 Oeste 0 1013.9 -0.3 62
2017-08-30 18:00:00 25.1 17 Oeste 30 Oeste 0 1013.7 -1 64
2017-08-30 17:00:00 25.3 20 Oeste 28 Oeste 0 1013.8 -1.4 63
2017-08-30 16:00:00 25.3 19 Oeste 27 Oeste 0 1014.2 -1.5 61
2017-08-30 15:00:00 25.2 15 Oeste 23 Noroeste 0 1014.7 -1 62
2017-08-30 14:00:00 25.5 6 Noroeste 11 Norte 0 1015.2 -0.5 60
2017-08-30 13:00:00 24.2 7 Norte 10 Norte 0 1015.7 0.3 64
2017-08-30 12:00:00 23.2 8 Norte 12 Norte 0 1015.7 0.3 68
2017-08-30 11:00:00 22.9 4 Norte 9 Nordeste 0 1015.7 1.3 68
2017-08-30 10:00:00 22.4 6 Nordeste 13 Este 0 1015.4 1.3 73
2017-08-30 09:00:00 21.4 5 Nordeste 14 Sudeste 0 1015.4 1.4 79
2017-08-30 08:00:00 21.1 10 Este 14 Sudeste 0 1014.4 0.4 79
2017-08-30 07:00:00 21 9 Este 13 Sudeste 0 1014.1 -0.4 78
2017-08-30 06:00:00 21.1 8 Sudeste 17 Sudeste 0 1014 -0.3 78
2017-08-30 05:00:00 21.1 12 Este 21 Sudeste 0 1014 -0.7 78
2017-08-30 04:00:00 21.6 8 Sudeste 17 Sudeste 0 1014.5 -0.3 74
2017-08-30 03:00:00 21.7 11 Sudeste 15 Sudeste 0 1014.3 -0.7 74
2017-08-30 02:00:00 21.9 5 Sur 11 Sudeste 0 1014.7 0.2 71
2017-08-30 01:00:00 21.8 3 Sudoeste 9 Sudoeste 0 1014.8 1 72
2017-08-30 00:00:00 21.6 5 Sudoeste 12 Oeste 0 1015 1.5 72
2017-08-29 23:00:00 21.6 6 Sudoeste 13 Sudoeste 0 1014.5 1.2 71
2017-08-29 22:00:00 21.9 10 Oeste 15 Oeste 0 1013.8 0.5 70
2017-08-29 21:00:00 22.1 11 Sudoeste 19 Sudoeste 0 1013.5 -0.1 66
2017-08-29 20:00:00 23.8 12 Sudoeste 19 Sudoeste 0 1013.3 -0.1 63
2017-08-29 19:00:00 24 12 Sudoeste 22 Oeste 0 1013.3 -0.2 62
2017-08-29 18:00:00 24.7 13 Oeste 22 Sudoeste 0 1013.6 -0.3 62
2017-08-29 17:00:00 25.2 14 Oeste 23 Sudoeste 0 1013.4 -0.6 62
2017-08-29 16:00:00 24.2 13 Sudoeste 24 Sudoeste 0 1013.5 -0.9 63
2017-08-29 15:00:00 24 11 Sudoeste 23 Sudoeste 0 1013.9 -0.8 65
2017-08-29 14:00:00 24.2 13 Sudoeste 22 Sudoeste 0 1014 -0.5 66
2017-08-29 13:00:00 23.8 9 Sudoeste 17 Oeste 0 1014.4 0.4 68
2017-08-29 12:00:00 22.9 6 Sur 13 Sudeste 0 1014.7 1.1 71
2017-08-29 11:00:00 22.1 9 Sudeste 20 Sudeste 0 1014.5 1.2 78
2017-08-29 10:00:00 20.5 17 Sudeste 21 Sudeste 0 1014 0.8 85
2017-08-29 09:00:00 19.8 14 Sudeste 20 Sudeste 0 1013.6 0.3 88
2017-08-29 08:00:00 19.5 12 Sudeste 17 Este 0.1 1013.3 -0.2 89
2017-08-29 07:00:00 20 9 Este 17 Sudeste 0.1 1013.2 -0.4 89
2017-08-29 06:00:00 19.7 2 Nordeste 17 Oeste 7.5 1013.3 -0.9 88
2017-08-29 05:00:00 20.7 14 Oeste 24 Oeste 5.2 1013.5 -1.3 81
2017-08-29 04:00:00 21.9 6 Sudoeste 13 Sudoeste 0 1013.6 -1.6 72
2017-08-29 03:00:00 21.7 7 Sudoeste 14 Oeste 0 1014.2 -1.2 72
2017-08-29 02:00:00 21.8 9 Sudoeste 17 Sudoeste 0 1014.8 -0.6 71
2017-08-29 01:00:00 21.9 10 Sudoeste 20 Oeste 0 1015.2 0.3 70
2017-08-29 00:00:00 22.1 11 Oeste 22 Oeste 0 1015.4 1 70
2017-08-28 23:00:00 22.1 12 Oeste 25 Sudoeste 0 1015.4 1.2 69
2017-08-28 22:00:00 22.2 13 Oeste 25 Sudoeste 0 1014.9 0.8 68
2017-08-28 21:00:00 22.5 14 Sudoeste 24 Sudoeste 0 1014.4 0 67
2017-08-28 20:00:00 23.9 16 Sudoeste 27 Sudoeste 0 1014.2 -0.2 66
2017-08-28 19:00:00 24.5 17 Sudoeste 28 Sudoeste 0 1014.1 -0.8 63
2017-08-28 18:00:00 25.5 15 Sudoeste 26 Oeste 0 1014.4 -0.6 59
2017-08-28 17:00:00 25.4 17 Sudoeste 27 Sudoeste 0 1014.4 -1 59
2017-08-28 16:00:00 25.9 15 Sudoeste 25 Sudoeste 0 1014.9 -0.6 61
2017-08-28 15:00:00 24.7 13 Sudoeste 21 Sudoeste 0 1015 -0.4 62
2017-08-28 14:00:00 24.9 10 Sudoeste 19 Sudoeste 0 1015.4 0 60
2017-08-28 13:00:00 24.9 10 Sudoeste 17 Sudoeste 0 1015.5 0 62
2017-08-28 12:00:00 23.8 8 Sudoeste 15 Oeste 0 1015.4 1.1 66
2017-08-28 11:00:00 23.5 8 Sudoeste 14 Sudoeste 0 1015.4 1.9 69
2017-08-28 10:00:00 22.6 7 Oeste 14 Oeste 0 1015.5 2 74
2017-08-28 09:00:00 22.2 9 Oeste 18 Oeste 0 1014.3 0.8 78
2017-08-28 08:00:00 21.6 9 Oeste 17 Oeste 0 1013.5 0 81
2017-08-28 07:00:00 21.7 6 Oeste 21 Oeste 0 1013.5 -0.6 80
2017-08-28 06:00:00 21.7 10 Oeste 21 Oeste 0 1013.5 -1 80
2017-08-28 05:00:00 21.7 11 Oeste 19 Oeste 0 1013.5 -1.2 80
2017-08-28 04:00:00 21.6 12 Oeste 22 Oeste 0 1014.1 -0.5 78
2017-08-28 03:00:00 21.9 14 Oeste 23 Oeste 0 1014.5 0 76
2017-08-28 02:00:00 22.3 15 Oeste 26 Sudoeste 0 1014.7 0.7 74
2017-08-28 01:00:00 22.5 13 Oeste 22 Oeste 0 1014.6 1.7 72
2017-08-28 00:00:00 22.7 12 Oeste 26 Oeste 0 1014.5 2 73
2017-08-27 23:00:00 22.8 15 Oeste 24 Oeste 0 1014 1.8 74
2017-08-27 22:00:00 22.7 13 Oeste 26 Oeste 0 1012.9 0.9 74
2017-08-27 21:00:00 23 12 Oeste 19 Oeste 0 1012.5 0.4 76
2017-08-27 20:00:00 23.6 13 Oeste 23 Oeste 0 1012.2 -0.1 75
2017-08-27 19:00:00 24 15 Oeste 26 Oeste 0 1012 -0.5 75
2017-08-27 18:00:00 24.8 18 Oeste 29 Oeste 0 1012.1 -0.8 76
2017-08-27 17:00:00 25.2 18 Sudoeste 29 Sudoeste 0 1012.3 -1 71
2017-08-27 16:00:00 25.6 20 Sudoeste 27 Oeste 0 1012.5 -0.8 73
2017-08-27 15:00:00 26 15 Sudoeste 26 Sur 0 1012.9 -0.3 75
2017-08-27 14:00:00 24.5 15 Sur 40 Sur 0.6 1013.3 1 87
2017-08-27 13:00:00 24.9 14 Sudoeste 27 Sudoeste 0.7 1013.3 2.9 88
2017-08-27 12:00:00 25.2 8 Sudoeste 30 Oeste 0.8 1013.2 1.4 85
2017-08-27 11:00:00 25.7 22 Sudeste 51 Este 0.2 1012.3 0.5 80
2017-08-27 10:00:00 25.2 37 Sudeste 54 Este 0.5 1010.4 -0.6 83
2017-08-27 09:00:00 24.9 19 Este 25 Sudeste 0.1 1011.8 0.9 85
2017-08-27 08:00:00 24.2 2 Nordeste 36 Sudeste 0.9 1011.8 1.6 89
2017-08-27 07:00:00 24.2 15 Sur 30 Sudoeste 1.8 1011 1.2 89
2017-08-27 06:00:00 24.8 15 Sudoeste 32 Sudoeste 0 1010.9 0.2 83
2017-08-27 05:00:00 26.1 8 Sur 44 Sudeste 0 1010.2 -2.4 71
2017-08-27 04:00:00 26.7 38 Sudeste 55 Sudeste 0 1009.8 -1.4 71
2017-08-27 03:00:00 26.8 25 Sudeste 35 Sudeste 0 1010.7 -0.7 72
2017-08-27 02:00:00 26.4 8 Oeste 32 Sudeste 0 1012.6 1.6 69
2017-08-27 01:00:00 26.8 15 Sudeste 39 Sudeste 0 1011.2 0.7 67
2017-08-27 00:00:00 27.8 13 Sudeste 24 Sudeste 0 1011.4 1.2 57
2017-08-26 23:00:00 27.5 5 Sur 25 Sudeste 0 1011 0.7 59
2017-08-26 22:00:00 28.2 20 Sudeste 30 Sudeste 0 1010.5 0.5 58
2017-08-26 21:00:00 29.1 5 Nordeste 25 Sudeste 0 1010.2 0.2 57
2017-08-26 20:00:00 29.7 17 Este 32 Sudeste 0 1010.3 -0.6 56
2017-08-26 19:00:00 30.6 22 Sudeste 35 Sudeste 0 1010 -1.6 57
2017-08-26 18:00:00 29.9 6 Sudeste 10 Sudeste 0 1010 -1.7 65
2017-08-26 17:00:00 28.1 7 Sur 15 Sur 0 1010.9 -0.7 69
2017-08-26 16:00:00 28.7 10 Sudoeste 21 Sudoeste 0 1011.6 -0.9 62
2017-08-26 15:00:00 30.5 8 Sudoeste 31 Este 0 1011.7 -1.2 53
2017-08-26 14:00:00 31.8 27 Este 36 Sudeste 0 1011.6 -1.6 49
2017-08-26 13:00:00 31.7 16 Este 27 Este 0 1012.5 -0.1 48
2017-08-26 12:00:00 29.1 14 Nordeste 23 Norte 0 1012.9 0.4 51
2017-08-26 11:00:00 26.6 15 Norte 22 Norte 0 1013.2 1.7 59
2017-08-26 10:00:00 24.8 14 Norte 22 Noroeste 0 1012.6 0.7 71
2017-08-26 09:00:00 25.4 7 Norte 21 Este 0 1012.5 0.5 69
2017-08-26 08:00:00 25.5 24 Este 34 Este 0 1011.5 -1 71
2017-08-26 07:00:00 25.4 10 Sudeste 17 Este 0 1011.9 -0.1 69
2017-08-26 06:00:00 25.6 9 Este 18 Este 0 1012 -0.6 68
2017-08-26 05:00:00 25.9 11 Este 20 Este 0 1012.5 0 67
2017-08-26 04:00:00 25.9 14 Este 22 Este 0 1012 -1.1 66
2017-08-26 03:00:00 25.3 3 Nordeste 12 Este 0 1012.6 -0.7 65
2017-08-26 02:00:00 25.8 5 Nordeste 8 Nordeste 0 1012.5 -0.6 71
2017-08-26 01:00:00 26 0 Calma 8 Sudeste 0 1013.1 0.5 67
2017-08-26 00:00:00 27 4 Sudeste 8 Sudeste 0 1013.3 1.1 67
2017-08-25 23:00:00 26.5 3 Norte 9 Noroeste 0 1013.1 0.7 69
2017-08-25 22:00:00 26.2 6 Noroeste 12 Norte 0 1012.6 -0.1 70
2017-08-25 21:00:00 27.1 6 Norte 12 Noroeste 0 1012.2 -1 64
2017-08-25 20:00:00 26.7 10 Noroeste 14 Noroeste 0 1012.4 -0.6 66
2017-08-25 19:00:00 27.3 8 Noroeste 19 Oeste 0 1012.7 -1.1 62
2017-08-25 18:00:00 27.9 13 Oeste 21 Oeste 0 1013.2 -0.6 57
2017-08-25 17:00:00 28.1 8 Oeste 20 Oeste 0 1013 -1.1 58
2017-08-25 16:00:00 27.8 14 Sudoeste 22 Oeste 0 1013.8 -0.8 62
2017-08-25 15:00:00 29.7 9 Sudoeste 17 Oeste 0 1013.8 -1 56
2017-08-25 14:00:00 28.6 8 Norte 16 Noroeste 0 1014.1 -0.4 59
2017-08-25 13:00:00 28.8 5 Norte 17 Oeste 0 1014.6 0.4 53
2017-08-25 12:00:00 26.6 11 Norte 16 Norte 0 1014.8 0.8 62
2017-08-25 11:00:00 25.7 11 Norte 14 Norte 0 1014.5 1 69
2017-08-25 10:00:00 25.2 3 Nordeste 13 Nordeste 0 1014.2 0.9 71
2017-08-25 09:00:00 24.8 3 Norte 12 Nordeste 0 1014 0.8 72
2017-08-25 08:00:00 24.2 3 Oeste 16 Sudoeste 0 1013.5 -0.3 72
2017-08-25 07:00:00 24 9 Oeste 20 Sudoeste 0 1013.3 -0.5 71
2017-08-25 06:00:00 24.3 5 Oeste 11 Sudoeste 0 1013.2 -1 65
2017-08-25 05:00:00 24.6 7 Sudoeste 27 Este 0 1013.8 -1.2 63
2017-08-25 04:00:00 25.3 20 Sudeste 29 Este 0 1013.8 -1.4 60
2017-08-25 03:00:00 24.9 14 Este 21 Este 0 1014.2 -1.3 67
2017-08-25 02:00:00 24.5 9 Este 13 Este 0 1015 -0.5 67
2017-08-25 01:00:00 25 7 Nordeste 10 Nordeste 0 1015.2 0.5 72
2017-08-25 00:00:00 25.1 5 Norte 9 Noroeste 0 1015.5 1.5 72
2017-08-24 23:00:00 25.2 8 Noroeste 14 Noroeste 0 1015.5 1.8 69
2017-08-24 22:00:00 25.4 8 Oeste 16 Oeste 0 1014.7 1 74
2017-08-24 21:00:00 26.4 6 Oeste 12 Oeste 0 1014 0.1 67
2017-08-24 20:00:00 27.4 8 Oeste 17 Noroeste 0 1013.7 -0.6 65
2017-08-24 19:00:00 27.5 11 Noroeste 17 Noroeste 0 1013.7 -1.1 59
2017-08-24 18:00:00 28 12 Oeste 19 Oeste 0 1013.9 -1.3 60
2017-08-24 17:00:00 27.8 10 Oeste 19 Oeste 0 1014.3 -0.8 58
2017-08-24 16:00:00 27.7 12 Oeste 19 Oeste 0 1014.8 -0.5 62
2017-08-24 15:00:00 27.2 14 Oeste 24 Oeste 0 1015.2 -0.5 65
2017-08-24 14:00:00 26.7 16 Oeste 21 Oeste 0 1015.1 -0.3 68
2017-08-24 13:00:00 27.8 9 Oeste 15 Oeste 0 1015.3 0.5 63
2017-08-24 12:00:00 26.9 11 Oeste 14 Oeste 0 1015.7 1.2 63
2017-08-24 11:00:00 28 0 Calma 8 Sudeste 0 1015.4 1.2 57
2017-08-24 10:00:00 25.4 5 Sudeste 8 Este 0 1014.8 0.9 63
2017-08-24 09:00:00 24 6 Este 10 Este 0 1014.5 0.4 65
2017-08-24 08:00:00 23.3 7 Este 11 Este 0 1014.2 0.5 68
2017-08-24 07:00:00 23.8 5 Este 10 Este 0 1013.9 -0.3 66
2017-08-24 06:00:00 23.9 5 Este 9 Este 0 1014.1 -0.5 64
2017-08-24 05:00:00 25.4 7 Sudeste 17 Sudeste 0 1013.7 -1.5 60
2017-08-24 04:00:00 25.2 10 Sudeste 17 Sudeste 0 1014.2 -1.1 60
2017-08-24 03:00:00 25.4 10 Sudeste 19 Sudeste 0 1014.6 -0.7 57
2017-08-24 02:00:00 25 2 Este 5 Este 0 1015.2 0.3 70
2017-08-24 01:00:00 24.8 0 Calma 5 Este 0 1015.3 0.9 69
2017-08-24 00:00:00 25.3 3 Nordeste 9 Oeste 0 1015.3 1.5 63
2017-08-23 23:00:00 25.3 6 Oeste 12 Noroeste 0 1014.9 1.2 63
2017-08-23 22:00:00 25.8 5 Oeste 15 Noroeste 0 1014.4 0.9 60
2017-08-23 21:00:00 25.7 8 Oeste 22 Oeste 0 1013.8 0.2 63
2017-08-23 20:00:00 26.1 14 Oeste 26 Oeste 0 1013.7 -0.1 65
2017-08-23 19:00:00 27.1 15 Oeste 24 Oeste 0 1013.5 -0.8 59
2017-08-23 18:00:00 28.5 13 Oeste 20 Sudoeste 0 1013.6 -1.2 58
2017-08-23 17:00:00 29.4 11 Sudoeste 22 Oeste 0 1013.8 -1.3 53
2017-08-23 16:00:00 28.9 14 Oeste 26 Sudoeste 0 1014.3 -1.1 53
2017-08-23 15:00:00 28.6 17 Sudoeste 26 Sudoeste 0 1014.8 -0.6 51
2017-08-23 14:00:00 28.9 16 Sudoeste 23 Sudoeste 0 1015.1 -0.2 56
2017-08-23 13:00:00 31.3 2 Norte 11 Noroeste 0 1015.4 0.6 44
2017-08-23 12:00:00 28.5 9 Noroeste 13 Este 0 1015.4 0.8 51
2017-08-23 11:00:00 29.6 6 Nordeste 25 Este 0 1015.3 0.9 44
2017-08-23 10:00:00 26.7 18 Este 22 Este 0 1014.8 0.8 51
2017-08-23 09:00:00 24.6 10 Este 16 Este 0 1014.6 1 64
2017-08-23 08:00:00 23.1 6 Nordeste 10 Nordeste 0 1014.4 0.8 71
2017-08-23 07:00:00 23.2 6 Nordeste 10 Norte 0 1014 0 74
2017-08-23 06:00:00 23.7 6 Nordeste 13 Nordeste 0 1013.6 -0.7 66
2017-08-23 05:00:00 24 8 Nordeste 14 Este 0 1013.6 -1.3 61
2017-08-23 04:00:00 24.3 5 Este 11 Este 0 1014 -0.9 65
2017-08-23 03:00:00 25.1 4 Este 17 Este 0 1014.3 -0.5 59
2017-08-23 02:00:00 25.3 3 Este 9 Este 0 1014.9 0.4 59
2017-08-23 01:00:00 25.9 5 Nordeste 18 Este 0 1014.9 0.9 68
2017-08-23 00:00:00 26.1 17 Este 22 Sudeste 0 1014.8 1.1 57
2017-08-22 23:00:00 24.8 4 Oeste 9 Noroeste 0 1014.5 1 76
2017-08-22 22:00:00 26 4 Norte 14 Oeste 0 1014 0.8 74
2017-08-22 21:00:00 25.7 11 Oeste 21 Noroeste 0 1013.7 0.3 72
2017-08-22 20:00:00 26.2 14 Noroeste 26 Noroeste 0 1013.5 -0.5 72
2017-08-22 19:00:00 26.5 15 Oeste 23 Noroeste 0 1013.2 -1.5 73
2017-08-22 18:00:00 27.1 15 Oeste 19 Oeste 0 1013.4 -1.9 70
2017-08-22 17:00:00 27.8 13 Oeste 19 Oeste 0 1014 -1.8 62
2017-08-22 16:00:00 29.5 10 Sudoeste 18 Sudoeste 0 1014.7 -1.6 57
2017-08-22 15:00:00 28.5 9 Sudoeste 18 Oeste 0 1015.3 -1.2 59
2017-08-22 14:00:00 28.7 13 Sudoeste 27 Sudeste 0 1015.8 -0.6 56
2017-08-22 13:00:00 30.2 22 Este 33 Este 0 1016.3 0.3 48
2017-08-22 12:00:00 29.2 27 Este 33 Este 0 1016.5 0.3 48
2017-08-22 11:00:00 28.2 22 Este 41 Este 0 1016.4 0.4 51
2017-08-22 10:00:00 26.6 22 Este 35 Este 0 1016 0.2 55
2017-08-22 09:00:00 24.5 7 Nordeste 12 Nordeste 0 1016.2 0.7 69
2017-08-22 08:00:00 23.3 9 Norte 13 Nordeste 0 1016 0.6 81
2017-08-22 07:00:00 23.1 10 Norte 16 Norte 0 1015.8 0.6 78
2017-08-22 06:00:00 24.3 8 Nordeste 17 Nordeste 0 1015.5 0.7 67
2017-08-22 05:00:00 24.9 9 Nordeste 26 Este 0 1015.4 0.6 57
2017-08-22 04:00:00 24.8 13 Este 33 Este 0 1015.2 0.4 68
2017-08-22 03:00:00 25.1 26 Este 42 Este 0 1014.8 0.1 70
2017-08-22 02:00:00 25.2 33 Este 50 Este 0 1014.8 0.4 72
2017-08-22 01:00:00 25.3 38 Este 51 Sudeste 0 1014.8 1.1 72
2017-08-22 00:00:00 25.7 35 Sudeste 52 Sudeste 0 1014.7 1.5 67